sensor_id;sensor_type;location;lat;lon;timestamp;P1;durP1;ratioP1;P2;durP2;ratioP2
63534;SDS011;55128;50.230;18.944;2024-01-15T00:01:50;12.60;;;7.53;;
63534;SDS011;55128;50.230;18.944;2024-01-15T00:06:51;15.77;;;7.18;;
63534;SDS011;55128;50.230;18.944;2024-01-15T00:11:51;13.35;;;7.53;;
63534;SDS011;55128;50.230;18.944;2024-01-15T00:16:51;13.17;;;6.97;;
63534;SDS011;55128;50.230;18.944;2024-01-15T00:21:54;11.90;;;6.60;;
63534;SDS011;55128;50.230;18.944;2024-01-15T00:26:55;9.88;;;6.07;;
63534;SDS011;55128;50.230;18.944;2024-01-15T00:31:55;10.77;;;6.18;;
63534;SDS011;55128;50.230;18.944;2024-01-15T00:36:56;11.43;;;6.82;;
63534;SDS011;55128;50.230;18.944;2024-01-15T00:41:56;12.07;;;6.97;;
63534;SDS011;55128;50.230;18.944;2024-01-15T00:46:56;10.20;;;5.85;;
63534;SDS011;55128;50.230;18.944;2024-01-15T00:51:57;12.63;;;6.22;;
63534;SDS011;55128;50.230;18.944;2024-01-15T00:56:57;12.00;;;6.40;;
63534;SDS011;55128;50.230;18.944;2024-01-15T01:01:57;11.23;;;5.80;;
63534;SDS011;55128;50.230;18.944;2024-01-15T01:06:58;9.25;;;5.60;;
63534;SDS011;55128;50.230;18.944;2024-01-15T01:11:58;11.50;;;6.38;;
63534;SDS011;55128;50.230;18.944;2024-01-15T01:16:59;10.32;;;5.60;;
63534;SDS011;55128;50.230;18.944;2024-01-15T01:21:59;11.65;;;6.15;;
63534;SDS011;55128;50.230;18.944;2024-01-15T01:27:00;10.93;;;5.05;;
63534;SDS011;55128;50.230;18.944;2024-01-15T01:32:00;9.32;;;5.45;;
63534;SDS011;55128;50.230;18.944;2024-01-15T01:37:00;8.98;;;5.05;;
63534;SDS011;55128;50.230;18.944;2024-01-15T01:42:01;10.93;;;5.75;;
63534;SDS011;55128;50.230;18.944;2024-01-15T01:47:01;8.98;;;5.57;;
63534;SDS011;55128;50.230;18.944;2024-01-15T01:52:04;10.32;;;5.18;;
63534;SDS011;55128;50.230;18.944;2024-01-15T01:57:07;8.95;;;5.20;;
63534;SDS011;55128;50.230;18.944;2024-01-15T02:02:08;9.02;;;4.57;;
63534;SDS011;55128;50.230;18.944;2024-01-15T02:07:08;8.00;;;4.55;;
63534;SDS011;55128;50.230;18.944;2024-01-15T02:12:10;8.80;;;4.75;;
63534;SDS011;55128;50.230;18.944;2024-01-15T02:17:11;7.60;;;4.57;;
63534;SDS011;55128;50.230;18.944;2024-01-15T02:22:11;8.85;;;4.43;;
63534;SDS011;55128;50.230;18.944;2024-01-15T02:27:11;10.45;;;4.60;;
63534;SDS011;55128;50.230;18.944;2024-01-15T02:32:12;8.00;;;4.20;;
63534;SDS011;55128;50.230;18.944;2024-01-15T02:37:12;7.68;;;4.32;;
63534;SDS011;55128;50.230;18.944;2024-01-15T02:42:13;6.03;;;3.60;;
63534;SDS011;55128;50.230;18.944;2024-01-15T02:47:13;8.13;;;4.03;;
63534;SDS011;55128;50.230;18.944;2024-01-15T02:52:13;6.75;;;3.60;;
63534;SDS011;55128;50.230;18.944;2024-01-15T02:57:14;6.65;;;3.50;;
63534;SDS011;55128;50.230;18.944;2024-01-15T03:02:14;5.50;;;3.70;;
63534;SDS011;55128;50.230;18.944;2024-01-15T03:07:15;5.68;;;3.55;;
63534;SDS011;55128;50.230;18.944;2024-01-15T03:12:15;5.82;;;3.28;;
63534;SDS011;55128;50.230;18.944;2024-01-15T03:17:16;4.65;;;2.70;;
63534;SDS011;55128;50.230;18.944;2024-01-15T03:22:17;5.72;;;3.03;;
63534;SDS011;55128;50.230;18.944;2024-01-15T03:27:17;5.28;;;2.90;;
63534;SDS011;55128;50.230;18.944;2024-01-15T03:32:18;6.57;;;3.55;;
63534;SDS011;55128;50.230;18.944;2024-01-15T03:37:19;6.78;;;3.35;;
63534;SDS011;55128;50.230;18.944;2024-01-15T03:42:20;6.80;;;3.80;;
63534;SDS011;55128;50.230;18.944;2024-01-15T03:47:20;6.68;;;3.72;;
63534;SDS011;55128;50.230;18.944;2024-01-15T03:52:20;6.82;;;3.58;;
63534;SDS011;55128;50.230;18.944;2024-01-15T03:57:21;8.03;;;3.80;;
63534;SDS011;55128;50.230;18.944;2024-01-15T04:02:21;7.15;;;4.03;;
63534;SDS011;55128;50.230;18.944;2024-01-15T04:07:21;6.00;;;3.67;;
63534;SDS011;55128;50.230;18.944;2024-01-15T04:12:22;7.20;;;4.30;;
63534;SDS011;55128;50.230;18.944;2024-01-15T04:17:22;7.93;;;4.60;;
63534;SDS011;55128;50.230;18.944;2024-01-15T04:22:22;7.40;;;4.60;;
63534;SDS011;55128;50.230;18.944;2024-01-15T04:27:23;7.28;;;4.20;;
63534;SDS011;55128;50.230;18.944;2024-01-15T04:32:23;7.32;;;5.00;;
63534;SDS011;55128;50.230;18.944;2024-01-15T04:37:24;8.57;;;4.20;;
63534;SDS011;55128;50.230;18.944;2024-01-15T04:42:24;8.60;;;4.80;;
63534;SDS011;55128;50.230;18.944;2024-01-15T04:47:24;8.75;;;4.43;;
63534;SDS011;55128;50.230;18.944;2024-01-15T04:52:25;9.18;;;4.85;;
63534;SDS011;55128;50.230;18.944;2024-01-15T04:57:25;8.18;;;4.57;;
63534;SDS011;55128;50.230;18.944;2024-01-15T05:02:25;8.50;;;4.53;;
63534;SDS011;55128;50.230;18.944;2024-01-15T05:07:26;8.40;;;4.82;;
63534;SDS011;55128;50.230;18.944;2024-01-15T05:12:26;7.60;;;4.53;;
63534;SDS011;55128;50.230;18.944;2024-01-15T05:17:27;7.40;;;3.90;;
63534;SDS011;55128;50.230;18.944;2024-01-15T05:22:27;8.07;;;4.80;;
63534;SDS011;55128;50.230;18.944;2024-01-15T05:27:27;10.80;;;4.55;;
63534;SDS011;55128;50.230;18.944;2024-01-15T05:32:28;9.00;;;4.85;;
63534;SDS011;55128;50.230;18.944;2024-01-15T05:37:28;9.52;;;4.82;;
63534;SDS011;55128;50.230;18.944;2024-01-15T05:42:29;9.70;;;4.60;;
63534;SDS011;55128;50.230;18.944;2024-01-15T05:47:30;8.95;;;5.07;;
63534;SDS011;55128;50.230;18.944;2024-01-15T05:52:30;8.97;;;5.37;;
63534;SDS011;55128;50.230;18.944;2024-01-15T05:57:31;8.23;;;4.97;;
63534;SDS011;55128;50.230;18.944;2024-01-15T06:02:31;8.57;;;4.57;;
63534;SDS011;55128;50.230;18.944;2024-01-15T06:07:33;8.55;;;5.03;;
63534;SDS011;55128;50.230;18.944;2024-01-15T06:12:34;11.02;;;4.53;;
63534;SDS011;55128;50.230;18.944;2024-01-15T06:17:35;7.97;;;4.75;;
63534;SDS011;55128;50.230;18.944;2024-01-15T06:22:35;8.73;;;5.03;;
63534;SDS011;55128;50.230;18.944;2024-01-15T06:27:36;9.45;;;5.28;;
63534;SDS011;55128;50.230;18.944;2024-01-15T06:32:36;9.55;;;5.05;;
63534;SDS011;55128;50.230;18.944;2024-01-15T06:37:37;12.60;;;5.72;;
63534;SDS011;55128;50.230;18.944;2024-01-15T06:42:39;10.40;;;5.80;;
63534;SDS011;55128;50.230;18.944;2024-01-15T06:47:40;12.80;;;5.63;;
63534;SDS011;55128;50.230;18.944;2024-01-15T06:52:42;13.85;;;6.40;;
63534;SDS011;55128;50.230;18.944;2024-01-15T06:57:42;9.98;;;5.95;;
63534;SDS011;55128;50.230;18.944;2024-01-15T07:02:43;12.05;;;6.63;;
63534;SDS011;55128;50.230;18.944;2024-01-15T07:07:43;11.67;;;7.17;;
63534;SDS011;55128;50.230;18.944;2024-01-15T07:12:43;11.10;;;5.50;;
63534;SDS011;55128;50.230;18.944;2024-01-15T07:17:44;9.43;;;5.82;;
63534;SDS011;55128;50.230;18.944;2024-01-15T07:22:44;10.50;;;6.23;;
63534;SDS011;55128;50.230;18.944;2024-01-15T07:27:45;10.40;;;6.10;;
63534;SDS011;55128;50.230;18.944;2024-01-15T07:32:46;13.43;;;6.60;;
63534;SDS011;55128;50.230;18.944;2024-01-15T07:37:46;11.55;;;6.07;;
63534;SDS011;55128;50.230;18.944;2024-01-15T07:42:47;9.93;;;6.40;;
63534;SDS011;55128;50.230;18.944;2024-01-15T07:47:47;10.82;;;6.35;;
63534;SDS011;55128;50.230;18.944;2024-01-15T07:52:49;12.23;;;6.68;;
63534;SDS011;55128;50.230;18.944;2024-01-15T07:57:49;12.00;;;6.82;;
63534;SDS011;55128;50.230;18.944;2024-01-15T08:02:50;11.40;;;6.38;;
63534;SDS011;55128;50.230;18.944;2024-01-15T08:07:51;13.50;;;6.85;;
63534;SDS011;55128;50.230;18.944;2024-01-15T08:12:51;13.77;;;7.43;;
63534;SDS011;55128;50.230;18.944;2024-01-15T08:17:51;12.83;;;6.63;;
63534;SDS011;55128;50.230;18.944;2024-01-15T08:22:52;10.77;;;6.63;;
63534;SDS011;55128;50.230;18.944;2024-01-15T08:27:52;13.27;;;7.95;;
63534;SDS011;55128;50.230;18.944;2024-01-15T08:32:56;15.80;;;8.15;;
63534;SDS011;55128;50.230;18.944;2024-01-15T08:37:57;15.93;;;8.82;;
63534;SDS011;55128;50.230;18.944;2024-01-15T08:42:58;15.10;;;9.02;;
63534;SDS011;55128;50.230;18.944;2024-01-15T08:47:59;16.95;;;8.75;;
63534;SDS011;55128;50.230;18.944;2024-01-15T08:53:02;17.30;;;9.23;;
63534;SDS011;55128;50.230;18.944;2024-01-15T08:58:03;16.88;;;9.35;;
63534;SDS011;55128;50.230;18.944;2024-01-15T09:03:04;16.38;;;9.43;;
63534;SDS011;55128;50.230;18.944;2024-01-15T09:08:04;16.90;;;9.13;;
63534;SDS011;55128;50.230;18.944;2024-01-15T09:13:05;13.88;;;8.02;;
63534;SDS011;55128;50.230;18.944;2024-01-15T09:18:05;13.55;;;8.05;;
63534;SDS011;55128;50.230;18.944;2024-01-15T09:23:06;12.55;;;7.53;;
63534;SDS011;55128;50.230;18.944;2024-01-15T09:28:06;14.30;;;8.15;;
63534;SDS011;55128;50.230;18.944;2024-01-15T09:33:08;14.98;;;7.28;;
63534;SDS011;55128;50.230;18.944;2024-01-15T09:38:08;14.40;;;8.48;;
63534;SDS011;55128;50.230;18.944;2024-01-15T09:43:09;15.60;;;8.02;;
63534;SDS011;55128;50.230;18.944;2024-01-15T09:48:11;13.90;;;7.93;;
63534;SDS011;55128;50.230;18.944;2024-01-15T09:53:13;16.08;;;9.05;;
63534;SDS011;55128;50.230;18.944;2024-01-15T09:58:15;15.43;;;9.13;;
63534;SDS011;55128;50.230;18.944;2024-01-15T10:03:15;18.63;;;9.45;;
63534;SDS011;55128;50.230;18.944;2024-01-15T10:08:16;17.58;;;10.10;;
63534;SDS011;55128;50.230;18.944;2024-01-15T10:13:16;19.70;;;11.25;;
63534;SDS011;55128;50.230;18.944;2024-01-15T10:18:17;19.80;;;10.30;;
63534;SDS011;55128;50.230;18.944;2024-01-15T10:23:17;20.13;;;10.55;;
63534;SDS011;55128;50.230;18.944;2024-01-15T10:28:19;19.15;;;9.95;;
63534;SDS011;55128;50.230;18.944;2024-01-15T10:33:23;21.00;;;10.30;;
63534;SDS011;55128;50.230;18.944;2024-01-15T10:38:25;16.63;;;10.52;;
63534;SDS011;55128;50.230;18.944;2024-01-15T10:43:26;20.52;;;9.50;;
63534;SDS011;55128;50.230;18.944;2024-01-15T10:48:26;16.90;;;10.07;;
63534;SDS011;55128;50.230;18.944;2024-01-15T10:53:28;17.30;;;8.85;;
63534;SDS011;55128;50.230;18.944;2024-01-15T11:03:33;14.82;;;8.13;;
63534;SDS011;55128;50.230;18.944;2024-01-15T11:08:34;14.57;;;8.80;;
63534;SDS011;55128;50.230;18.944;2024-01-15T11:18:42;14.82;;;8.65;;
63534;SDS011;55128;50.230;18.944;2024-01-15T11:24:00;16.65;;;8.80;;
63534;SDS011;55128;50.230;18.944;2024-01-15T11:29:09;16.77;;;9.50;;
63534;SDS011;55128;50.230;18.944;2024-01-15T11:40:03;18.25;;;9.30;;
63534;SDS011;55128;50.230;18.944;2024-01-15T11:45:11;18.30;;;9.02;;
63534;SDS011;55128;50.230;18.944;2024-01-15T11:50:11;16.10;;;8.68;;
63534;SDS011;55128;50.230;18.944;2024-01-15T11:55:14;15.05;;;8.98;;
63534;SDS011;55128;50.230;18.944;2024-01-15T12:00:20;17.10;;;9.90;;
63534;SDS011;55128;50.230;18.944;2024-01-15T12:05:22;17.95;;;9.90;;
63534;SDS011;55128;50.230;18.944;2024-01-15T12:10:22;17.23;;;10.25;;
63534;SDS011;55128;50.230;18.944;2024-01-15T12:15:24;21.20;;;10.98;;
63534;SDS011;55128;50.230;18.944;2024-01-15T12:20:29;14.55;;;8.73;;
63534;SDS011;55128;50.230;18.944;2024-01-15T12:25:31;17.90;;;9.80;;
63534;SDS011;55128;50.230;18.944;2024-01-15T12:30:33;17.10;;;9.00;;
63534;SDS011;55128;50.230;18.944;2024-01-15T12:35:34;16.98;;;9.60;;
63534;SDS011;55128;50.230;18.944;2024-01-15T12:40:35;14.48;;;8.82;;
63534;SDS011;55128;50.230;18.944;2024-01-15T12:45:36;18.90;;;10.18;;
63534;SDS011;55128;50.230;18.944;2024-01-15T12:50:37;15.02;;;8.77;;
63534;SDS011;55128;50.230;18.944;2024-01-15T12:55:37;17.60;;;9.95;;
63534;SDS011;55128;50.230;18.944;2024-01-15T13:00:38;15.38;;;8.60;;
63534;SDS011;55128;50.230;18.944;2024-01-15T13:05:38;14.73;;;9.20;;
63534;SDS011;55128;50.230;18.944;2024-01-15T13:10:40;18.15;;;9.25;;
63534;SDS011;55128;50.230;18.944;2024-01-15T13:15:42;15.20;;;9.18;;
63534;SDS011;55128;50.230;18.944;2024-01-15T13:20:45;16.40;;;9.35;;
63534;SDS011;55128;50.230;18.944;2024-01-15T13:25:46;16.85;;;9.13;;
63534;SDS011;55128;50.230;18.944;2024-01-15T13:30:46;14.77;;;9.10;;
63534;SDS011;55128;50.230;18.944;2024-01-15T13:35:47;18.02;;;8.90;;
63534;SDS011;55128;50.230;18.944;2024-01-15T13:40:50;17.75;;;9.02;;
63534;SDS011;55128;50.230;18.944;2024-01-15T13:45:50;14.60;;;8.50;;
63534;SDS011;55128;50.230;18.944;2024-01-15T13:50:50;17.35;;;8.30;;
63534;SDS011;55128;50.230;18.944;2024-01-15T13:55:51;28.70;;;13.00;;
63534;SDS011;55128;50.230;18.944;2024-01-15T14:00:51;23.30;;;10.18;;
63534;SDS011;55128;50.230;18.944;2024-01-15T14:05:52;15.38;;;7.65;;
63534;SDS011;55128;50.230;18.944;2024-01-15T14:10:52;13.55;;;6.70;;
63534;SDS011;55128;50.230;18.944;2024-01-15T14:15:54;13.88;;;7.15;;
63534;SDS011;55128;50.230;18.944;2024-01-15T14:20:55;14.55;;;6.80;;
63534;SDS011;55128;50.230;18.944;2024-01-15T14:25:56;12.27;;;6.18;;
63534;SDS011;55128;50.230;18.944;2024-01-15T14:30:56;13.95;;;6.88;;
63534;SDS011;55128;50.230;18.944;2024-01-15T14:36:00;21.38;;;8.35;;
63534;SDS011;55128;50.230;18.944;2024-01-15T14:41:00;16.13;;;7.82;;
63534;SDS011;55128;50.230;18.944;2024-01-15T14:46:01;12.95;;;7.13;;
63534;SDS011;55128;50.230;18.944;2024-01-15T14:51:01;14.95;;;7.82;;
63534;SDS011;55128;50.230;18.944;2024-01-15T14:56:03;13.38;;;6.53;;
63534;SDS011;55128;50.230;18.944;2024-01-15T15:01:03;12.43;;;6.28;;
63534;SDS011;55128;50.230;18.944;2024-01-15T15:06:04;16.60;;;7.47;;
63534;SDS011;55128;50.230;18.944;2024-01-15T15:11:07;12.68;;;5.95;;
63534;SDS011;55128;50.230;18.944;2024-01-15T15:16:08;11.10;;;6.05;;
63534;SDS011;55128;50.230;18.944;2024-01-15T15:21:09;15.13;;;6.70;;
63534;SDS011;55128;50.230;18.944;2024-01-15T15:26:09;11.68;;;6.00;;
63534;SDS011;55128;50.230;18.944;2024-01-15T15:31:10;15.15;;;7.15;;
63534;SDS011;55128;50.230;18.944;2024-01-15T15:36:11;13.77;;;6.18;;
63534;SDS011;55128;50.230;18.944;2024-01-15T15:41:11;16.88;;;8.02;;
63534;SDS011;55128;50.230;18.944;2024-01-15T15:46:12;14.00;;;7.05;;
63534;SDS011;55128;50.230;18.944;2024-01-15T15:51:16;15.20;;;8.00;;
63534;SDS011;55128;50.230;18.944;2024-01-15T15:56:17;14.95;;;7.93;;
63534;SDS011;55128;50.230;18.944;2024-01-15T16:01:17;11.32;;;7.10;;
63534;SDS011;55128;50.230;18.944;2024-01-15T16:06:18;12.13;;;6.75;;
63534;SDS011;55128;50.230;18.944;2024-01-15T16:11:18;15.75;;;6.75;;
63534;SDS011;55128;50.230;18.944;2024-01-15T16:16:19;14.25;;;6.57;;
63534;SDS011;55128;50.230;18.944;2024-01-15T16:21:20;13.25;;;6.78;;
63534;SDS011;55128;50.230;18.944;2024-01-15T16:26:20;11.95;;;6.93;;
63534;SDS011;55128;50.230;18.944;2024-01-15T16:31:20;16.35;;;7.65;;
63534;SDS011;55128;50.230;18.944;2024-01-15T16:36:22;12.82;;;6.47;;
63534;SDS011;55128;50.230;18.944;2024-01-15T16:41:22;14.30;;;7.38;;
63534;SDS011;55128;50.230;18.944;2024-01-15T16:46:23;12.73;;;7.40;;
63534;SDS011;55128;50.230;18.944;2024-01-15T16:51:23;14.93;;;7.13;;
63534;SDS011;55128;50.230;18.944;2024-01-15T16:56:24;13.27;;;6.75;;
63534;SDS011;55128;50.230;18.944;2024-01-15T17:01:24;14.68;;;7.03;;
63534;SDS011;55128;50.230;18.944;2024-01-15T17:06:25;15.32;;;7.63;;
63534;SDS011;55128;50.230;18.944;2024-01-15T17:11:25;20.45;;;8.13;;
63534;SDS011;55128;50.230;18.944;2024-01-15T17:16:25;13.00;;;6.35;;
63534;SDS011;55128;50.230;18.944;2024-01-15T17:21:26;15.23;;;7.95;;
63534;SDS011;55128;50.230;18.944;2024-01-15T17:26:26;16.38;;;7.75;;
63534;SDS011;55128;50.230;18.944;2024-01-15T17:31:27;19.17;;;7.90;;
63534;SDS011;55128;50.230;18.944;2024-01-15T17:36:27;12.43;;;6.47;;
63534;SDS011;55128;50.230;18.944;2024-01-15T17:41:27;13.80;;;6.82;;
63534;SDS011;55128;50.230;18.944;2024-01-15T17:46:28;13.87;;;6.60;;
63534;SDS011;55128;50.230;18.944;2024-01-15T17:51:31;12.13;;;5.93;;
63534;SDS011;55128;50.230;18.944;2024-01-15T17:56:33;15.55;;;6.75;;
63534;SDS011;55128;50.230;18.944;2024-01-15T18:01:33;13.30;;;6.57;;
63534;SDS011;55128;50.230;18.944;2024-01-15T18:06:35;12.25;;;6.75;;
63534;SDS011;55128;50.230;18.944;2024-01-15T18:11:36;13.95;;;6.57;;
63534;SDS011;55128;50.230;18.944;2024-01-15T18:16:38;11.65;;;6.85;;
63534;SDS011;55128;50.230;18.944;2024-01-15T18:21:38;14.05;;;7.28;;
63534;SDS011;55128;50.230;18.944;2024-01-15T18:26:38;14.93;;;7.43;;
63534;SDS011;55128;50.230;18.944;2024-01-15T18:31:39;14.98;;;7.22;;
63534;SDS011;55128;50.230;18.944;2024-01-15T18:36:43;15.73;;;7.93;;
63534;SDS011;55128;50.230;18.944;2024-01-15T18:41:49;15.25;;;7.40;;
63534;SDS011;55128;50.230;18.944;2024-01-15T18:46:50;15.43;;;7.90;;
63534;SDS011;55128;50.230;18.944;2024-01-15T18:51:50;14.48;;;7.50;;
63534;SDS011;55128;50.230;18.944;2024-01-15T18:56:51;14.18;;;6.90;;
63534;SDS011;55128;50.230;18.944;2024-01-15T19:01:52;15.98;;;7.15;;
63534;SDS011;55128;50.230;18.944;2024-01-15T19:06:52;13.52;;;6.70;;
63534;SDS011;55128;50.230;18.944;2024-01-15T19:11:52;13.50;;;6.10;;
63534;SDS011;55128;50.230;18.944;2024-01-15T19:16:53;15.10;;;6.32;;
63534;SDS011;55128;50.230;18.944;2024-01-15T19:21:54;12.63;;;6.03;;
63534;SDS011;55128;50.230;18.944;2024-01-15T19:26:54;12.32;;;6.10;;
63534;SDS011;55128;50.230;18.944;2024-01-15T19:31:54;9.48;;;5.65;;
63534;SDS011;55128;50.230;18.944;2024-01-15T19:36:55;12.55;;;6.57;;
63534;SDS011;55128;50.230;18.944;2024-01-15T19:41:55;12.27;;;6.38;;
63534;SDS011;55128;50.230;18.944;2024-01-15T19:46:56;12.43;;;6.55;;
63534;SDS011;55128;50.230;18.944;2024-01-15T19:51:58;12.75;;;6.97;;
63534;SDS011;55128;50.230;18.944;2024-01-15T19:56:58;12.93;;;6.20;;
63534;SDS011;55128;50.230;18.944;2024-01-15T20:01:59;12.52;;;7.15;;
63534;SDS011;55128;50.230;18.944;2024-01-15T20:06:59;17.15;;;7.47;;
63534;SDS011;55128;50.230;18.944;2024-01-15T20:12:00;13.05;;;7.63;;
63534;SDS011;55128;50.230;18.944;2024-01-15T20:17:01;11.20;;;6.70;;
63534;SDS011;55128;50.230;18.944;2024-01-15T20:22:04;16.90;;;7.93;;
63534;SDS011;55128;50.230;18.944;2024-01-15T20:27:04;15.25;;;6.85;;
63534;SDS011;55128;50.230;18.944;2024-01-15T20:32:05;13.32;;;6.90;;
63534;SDS011;55128;50.230;18.944;2024-01-15T20:37:05;13.80;;;7.57;;
63534;SDS011;55128;50.230;18.944;2024-01-15T20:42:06;13.63;;;7.25;;
63534;SDS011;55128;50.230;18.944;2024-01-15T20:47:06;13.60;;;7.07;;
63534;SDS011;55128;50.230;18.944;2024-01-15T20:52:07;13.70;;;7.00;;
63534;SDS011;55128;50.230;18.944;2024-01-15T20:57:07;13.35;;;7.28;;
63534;SDS011;55128;50.230;18.944;2024-01-15T21:02:07;14.70;;;7.38;;
63534;SDS011;55128;50.230;18.944;2024-01-15T21:07:08;13.65;;;6.47;;
63534;SDS011;55128;50.230;18.944;2024-01-15T21:12:08;16.17;;;7.43;;
63534;SDS011;55128;50.230;18.944;2024-01-15T21:17:09;13.85;;;7.60;;
63534;SDS011;55128;50.230;18.944;2024-01-15T21:22:09;15.23;;;7.90;;
63534;SDS011;55128;50.230;18.944;2024-01-15T21:27:09;14.57;;;7.60;;
63534;SDS011;55128;50.230;18.944;2024-01-15T21:32:10;13.68;;;7.50;;
63534;SDS011;55128;50.230;18.944;2024-01-15T21:37:11;15.35;;;7.20;;
63534;SDS011;55128;50.230;18.944;2024-01-15T21:42:11;15.35;;;7.60;;
63534;SDS011;55128;50.230;18.944;2024-01-15T21:47:12;13.20;;;7.30;;
63534;SDS011;55128;50.230;18.944;2024-01-15T21:52:12;16.20;;;8.20;;
63534;SDS011;55128;50.230;18.944;2024-01-15T21:57:12;15.98;;;8.10;;
63534;SDS011;55128;50.230;18.944;2024-01-15T22:02:13;20.48;;;8.95;;
63534;SDS011;55128;50.230;18.944;2024-01-15T22:07:13;12.93;;;7.82;;
63534;SDS011;55128;50.230;18.944;2024-01-15T22:12:14;18.38;;;8.80;;
63534;SDS011;55128;50.230;18.944;2024-01-15T22:17:15;12.98;;;7.45;;
63534;SDS011;55128;50.230;18.944;2024-01-15T22:22:16;13.25;;;7.25;;
63534;SDS011;55128;50.230;18.944;2024-01-15T22:27:16;12.10;;;8.03;;
63534;SDS011;55128;50.230;18.944;2024-01-15T22:32:17;11.65;;;6.22;;
63534;SDS011;55128;50.230;18.944;2024-01-15T22:37:17;13.38;;;6.80;;
63534;SDS011;55128;50.230;18.944;2024-01-15T22:42:18;12.25;;;6.72;;
63534;SDS011;55128;50.230;18.944;2024-01-15T22:47:18;11.13;;;5.93;;
63534;SDS011;55128;50.230;18.944;2024-01-15T22:52:19;12.43;;;6.20;;
63534;SDS011;55128;50.230;18.944;2024-01-15T22:57:19;11.75;;;6.32;;
63534;SDS011;55128;50.230;18.944;2024-01-15T23:02:20;13.55;;;6.43;;
63534;SDS011;55128;50.230;18.944;2024-01-15T23:07:21;12.73;;;6.88;;
63534;SDS011;55128;50.230;18.944;2024-01-15T23:12:21;11.63;;;6.28;;
63534;SDS011;55128;50.230;18.944;2024-01-15T23:17:21;10.88;;;5.78;;
63534;SDS011;55128;50.230;18.944;2024-01-15T23:22:22;13.45;;;6.30;;
63534;SDS011;55128;50.230;18.944;2024-01-15T23:27:23;11.85;;;6.43;;
63534;SDS011;55128;50.230;18.944;2024-01-15T23:32:23;15.02;;;7.25;;
63534;SDS011;55128;50.230;18.944;2024-01-15T23:37:23;14.18;;;7.90;;
63534;SDS011;55128;50.230;18.944;2024-01-15T23:42:24;13.73;;;8.38;;
63534;SDS011;55128;50.230;18.944;2024-01-15T23:47:24;14.65;;;7.35;;
63534;SDS011;55128;50.230;18.944;2024-01-15T23:52:25;17.50;;;9.13;;
63534;SDS011;55128;50.230;18.944;2024-01-15T23:57:25;16.60;;;9.73;;
